Time;durP1;ratioP1;P1;durP2;ratioP2;P2;SDS_P1;SDS_P2;PMS_P1;PMS_P2;Temp;Humidity;BMP_temperature;BMP_pressure;BME280_temperature;BME280_humidity;BME280_pressure;Samples;Min_cycle;Max_cycle;Signal;HPM_P1;HPM_P2
2021/10/31 07:27:42;;;;;;;45.87;27.37;;;10.50;99.90;;;;;;5122504;27;20576;-69
2021/10/31 07:30:09;;;;;;;44.23;28.77;;;10.50;99.90;;;;;;5114528;27;20499;-75
2021/10/31 07:32:34;;;;;;;41.67;28.30;;;10.50;99.90;;;;;;5114170;27;20039;-79
2021/10/31 07:35:00;;;;;;;39.37;27.53;;;10.50;99.90;;;;;;5113062;28;20040;-73
2021/10/31 07:37:29;;;;;;;43.07;28.77;;;10.60;99.90;;;;;;5124742;27;20510;-73
2021/10/31 07:39:56;;;;;;;36.00;26.40;;;10.60;99.90;;;;;;5124372;27;20051;-78
2021/10/31 07:42:28;;;;;;;38.87;27.17;;;10.70;99.90;;;;;;5123537;27;20071;-77
2021/10/31 07:44:54;;;;;;;;;;;10.80;99.90;;;;;;5124968;27;20867;-71
2021/10/31 07:47:20;;;;;;;32.53;24.47;;;10.90;99.90;;;;;;5126070;27;20291;-72
2021/10/31 07:49:46;;;;;;;30.53;23.40;;;10.90;99.90;;;;;;5123362;27;20068;-76
2021/10/31 07:52:11;;;;;;;37.10;24.13;;;11.00;99.90;;;;;;5125593;27;20107;-72
2021/10/31 07:54:37;;;;;;;33.27;24.13;;;11.00;99.90;;;;;;5124702;27;20036;-74
2021/10/31 07:57:03;;;;;;;29.10;23.80;;;11.10;99.90;;;;;;5125431;27;20092;-77
2021/10/31 07:59:28;;;;;;;31.17;22.43;;;11.10;99.90;;;;;;5125108;27;20407;-76
2021/10/31 08:02:02;;;;;;;28.23;21.93;;;11.20;99.90;;;;;;5123991;27;20050;-79
2021/10/31 08:04:28;;;;;;;28.93;22.27;;;11.20;99.90;;;;;;5124078;27;20403;-76
2021/10/31 08:06:53;;;;;;;28.80;23.70;;;11.20;99.90;;;;;;5124129;27;20043;-72
2021/10/31 08:09:19;;;;;;;30.17;21.33;;;11.30;99.90;;;;;;5123083;27;20043;-74
2021/10/31 08:11:45;;;;;;;28.50;21.93;;;11.30;99.90;;;;;;5121771;28;20499;-72
2021/10/31 08:14:11;;;;;;;27.53;21.67;;;11.30;99.90;;;;;;5115357;28;20419;-73
2021/10/31 08:16:37;;;;;;;25.43;22.20;;;11.30;99.90;;;;;;5112072;27;20071;-73
2021/10/31 08:19:04;;;;;;;27.00;20.50;;;11.40;99.90;;;;;;5125404;27;20086;-73
2021/10/31 08:21:30;;;;;;;26.53;20.23;;;11.50;99.90;;;;;;5125082;27;20126;-74
2021/10/31 08:23:56;;;;;;;25.03;20.50;;;11.50;99.90;;;;;;5123848;27;20137;-75
2021/10/31 08:26:23;;;;;;;25.40;21.13;;;11.60;99.90;;;;;;5124313;27;20047;-73
2021/10/31 08:28:50;;;;;;;27.23;22.07;;;11.70;99.90;;;;;;5123465;27;20417;-73
2021/10/31 08:31:26;;;;;;;29.40;21.50;;;11.70;99.90;;;;;;5140565;27;20056;-76
2021/10/31 08:34:00;;;;;;;26.37;21.53;;;11.80;99.90;;;;;;5124814;27;20092;-78
2021/10/31 08:36:27;;;;;;;24.20;21.60;;;11.80;99.90;;;;;;5124684;27;20325;-77
2021/10/31 08:38:53;;;;;;;25.63;22.00;;;11.90;99.90;;;;;;5110025;27;20054;-75
2021/10/31 08:41:20;;;;;;;33.57;30.33;;;11.90;99.90;;;;;;5110092;28;20052;-76
2021/10/31 08:43:50;;;;;;;29.30;22.97;;;11.90;99.90;;;;;;5109628;28;20043;-72
2021/10/31 08:46:17;;;;;;;23.83;20.97;;;11.90;99.90;;;;;;5110191;28;20044;-74
2021/10/31 08:48:44;;;;;;;25.27;20.67;;;11.90;99.90;;;;;;5110593;28;20059;-73
2021/10/31 08:51:10;;;;;;;24.07;20.03;;;12.00;99.90;;;;;;5100467;27;20042;-73
2021/10/31 08:53:37;;;;;;;27.37;20.67;;;12.00;99.90;;;;;;5088321;28;20059;-77
2021/10/31 08:56:05;;;;;;;26.30;21.00;;;12.00;99.90;;;;;;5091933;28;20032;-77
2021/10/31 08:58:31;;;;;;;24.70;20.77;;;12.00;99.90;;;;;;5098975;28;20056;-74
2021/10/31 09:00:57;;;;;;;24.13;21.23;;;12.00;99.90;;;;;;5097098;28;20358;-73
2021/10/31 09:03:22;;;;;;;24.57;20.70;;;12.00;99.90;;;;;;5105314;28;20043;-76
2021/10/31 09:05:49;;;;;;;22.57;19.87;;;12.10;99.90;;;;;;5108660;28;20036;-82
2021/10/31 09:08:16;;;;;;;23.87;20.33;;;12.10;99.90;;;;;;5110766;28;20484;-79
2021/10/31 09:10:42;;;;;;;23.17;20.73;;;12.20;99.90;;;;;;5109416;28;20122;-78
2021/10/31 09:13:08;;;;;;;22.87;19.90;;;12.20;99.90;;;;;;5110852;28;20135;-84
2021/10/31 09:15:34;;;;;;;24.30;21.80;;;12.30;99.90;;;;;;5115406;28;20492;-84
2021/10/31 09:18:01;;;;;;;21.87;19.57;;;12.40;99.90;;;;;;5110405;28;20052;-86
2021/10/31 09:20:29;;;;;;;22.40;20.10;;;12.40;99.90;;;;;;5109140;28;20047;-83
2021/10/31 09:22:57;;;;;;;23.20;19.57;;;12.50;99.90;;;;;;5110870;28;20097;-77
2021/10/31 09:25:24;;;;;;;21.73;19.53;;;12.50;99.90;;;;;;5108537;28;20504;-77
2021/10/31 09:27:50;;;;;;;22.10;18.47;;;12.60;99.90;;;;;;5105610;28;20054;-74
2021/10/31 09:30:16;;;;;;;22.90;20.40;;;12.60;99.90;;;;;;5094367;28;20040;-79
2021/10/31 09:32:46;;;;;;;20.87;18.50;;;12.60;99.90;;;;;;5100354;28;20128;-72
2021/10/31 09:35:13;;;;;;;21.52;18.88;;;12.70;99.90;;;;;;5105808;28;20146;-72
2021/10/31 09:37:39;;;;;;;19.67;17.57;;;12.70;99.90;;;;;;5109660;28;20062;-74
2021/10/31 09:40:05;;;;;;;21.13;18.67;;;12.70;99.90;;;;;;5109029;28;20048;-74
2021/10/31 09:42:36;;;;;;;19.67;16.80;;;12.70;99.90;;;;;;5109150;28;20534;-72
2021/10/31 09:45:04;;;;;;;18.50;16.43;;;12.80;99.90;;;;;;5111204;28;20070;-72
2021/10/31 09:47:29;;;;;;;18.93;17.03;;;12.80;99.90;;;;;;5108717;28;20328;-73
2021/10/31 09:49:58;;;;;;;17.83;16.03;;;12.90;99.90;;;;;;5107731;28;20138;-71
2021/10/31 09:52:25;;;;;;;16.10;13.97;;;13.00;99.90;;;;;;5110002;28;20092;-74
2021/10/31 09:54:51;;;;;;;15.20;12.63;;;13.00;99.90;;;;;;5109045;28;20036;-73
2021/10/31 09:57:18;;;;;;;16.33;14.40;;;13.10;99.90;;;;;;5108737;28;20051;-73
2021/10/31 09:59:50;;;;;;;14.17;12.77;;;13.20;99.90;;;;;;5110761;28;20322;-73
2021/10/31 10:10:54;;;;;;;15.07;10.33;;;13.50;99.90;;;;;;5102775;27;20351;-80
2021/10/31 10:13:31;;;;;;;12.97;10.10;;;13.50;99.90;;;;;;5070242;28;20052;-80
2021/10/31 10:16:18;;;;;;;13.13;9.50;;;13.60;99.90;;;;;;5088386;28;20404;-77
2021/10/31 10:18:43;;;;;;;14.43;9.07;;;13.70;99.90;;;;;;5069867;28;20063;-79
2021/10/31 10:21:22;;;;;;;11.00;9.10;;;13.80;99.90;;;;;;5091567;28;20048;-79
2021/10/31 10:24:00;;;;;;;11.00;9.10;;;13.90;99.90;;;;;;5094447;28;20042;-78
2021/10/31 10:26:37;;;;;;;10.50;8.40;;;13.90;99.90;;;;;;5072930;28;20056;-70
2021/10/31 10:29:08;;;;;;;13.23;8.87;;;14.00;99.80;;;;;;5086229;28;20032;-72
2021/10/31 10:31:34;;;;;;;8.68;7.38;;;14.10;99.60;;;;;;5067496;28;20532;-71
2021/10/31 10:33:59;;;;;;;9.57;8.10;;;14.00;99.30;;;;;;5085955;28;20040;-72
2021/10/31 10:36:25;;;;;;;10.00;7.77;;;14.10;99.60;;;;;;5085348;28;20048;-71
2021/10/31 10:39:08;;;;;;;10.87;8.07;;;14.10;99.10;;;;;;5066409;28;20131;-69
2021/10/31 10:41:55;;;;;;;9.87;7.47;;;14.20;98.90;;;;;;5085844;28;20130;-71
2021/10/31 10:44:22;;;;;;;8.83;7.47;;;14.20;99.00;;;;;;5085208;28;20044;-70
2021/10/31 10:46:53;;;;;;;9.43;7.33;;;14.40;98.90;;;;;;5085216;28;20533;-71
2021/10/31 10:49:20;;;;;;;10.82;7.18;;;14.40;98.60;;;;;;5066908;28;20118;-72
2021/10/31 10:52:24;;;;;;;9.37;7.27;;;14.50;98.10;;;;;;5067297;28;20173;-71
2021/10/31 10:55:00;;;;;;;9.37;7.63;;;14.50;97.70;;;;;;5067477;28;20056;-71
2021/10/31 11:11:04;;;;;;;8.60;6.87;;;14.50;96.30;;;;;;5084259;27;21004;-74
2021/10/31 11:13:31;;;;;;;11.37;8.20;;;14.60;97.30;;;;;;5064740;28;20075;-77
2021/10/31 11:16:03;;;;;;;11.07;6.90;;;14.70;97.20;;;;;;5059622;28;20106;-75
2021/10/31 11:18:28;;;;;;;9.83;7.67;;;14.70;97.00;;;;;;5043264;28;20489;-76
2021/10/31 11:20:54;;;;;;;9.47;7.83;;;14.70;96.80;;;;;;5056376;28;20037;-74
2021/10/31 11:23:21;;;;;;;11.03;7.80;;;14.80;96.80;;;;;;5057965;28;20076;-73
2021/10/31 11:25:48;;;;;;;8.43;7.33;;;14.90;96.80;;;;;;5061817;28;20041;-74
2021/10/31 11:28:16;;;;;;;10.57;8.00;;;15.00;96.70;;;;;;5048862;28;20087;-76
2021/10/31 11:30:45;;;;;;;10.60;6.90;;;15.10;96.60;;;;;;5027747;28;20557;-76
2021/10/31 11:33:11;;;;;;;9.07;6.57;;;15.20;96.20;;;;;;5026901;28;20049;-75
2021/10/31 11:35:40;;;;;;;8.67;7.07;;;15.20;96.00;;;;;;5048996;28;20439;-78
2021/10/31 11:38:05;;;;;;;9.33;7.27;;;15.20;96.00;;;;;;5038483;28;20049;-77
2021/10/31 11:40:49;;;;;;;9.43;6.53;;;15.30;95.90;;;;;;5026708;28;20140;-77
2021/10/31 11:43:22;;;;;;;9.50;6.53;;;15.40;95.10;;;;;;5027425;28;20073;-72
2021/10/31 11:45:50;;;;;;;8.57;6.37;;;15.40;95.00;;;;;;5045364;28;20135;-79
2021/10/31 11:48:19;;;;;;;9.47;6.77;;;15.40;94.80;;;;;;5057755;28;20572;-76
2021/10/31 11:51:03;;;;;;;7.53;6.60;;;15.40;94.80;;;;;;5056458;28;20059;-73
2021/10/31 11:53:49;;;;;;;8.30;6.30;;;15.50;94.60;;;;;;5056001;28;20049;-73
2021/10/31 11:56:15;;;;;;;8.90;6.10;;;15.40;94.00;;;;;;5030125;28;20511;-77
2021/10/31 11:58:47;;;;;;;10.00;5.73;;;15.40;94.30;;;;;;5045490;28;20545;-74
2021/10/31 12:01:12;;;;;;;9.53;6.43;;;15.50;94.10;;;;;;5027554;28;20041;-74
2021/10/31 12:03:44;;;;;;;8.37;6.40;;;15.40;93.90;;;;;;5044484;28;20060;-75
2021/10/31 12:06:15;;;;;;;;;;;15.30;93.90;;;;;;5027411;28;20103;-74
2021/10/31 12:08:48;;;;;;;8.18;5.63;;;15.30;92.80;;;;;;5043422;28;19948;-80
2021/10/31 12:11:17;;;;;;;7.87;4.97;;;15.30;94.20;;;;;;5027251;28;20417;-74
2021/10/31 12:13:48;;;;;;;8.27;5.73;;;15.30;94.30;;;;;;5044960;28;20053;-78
2021/10/31 12:16:16;;;;;;;7.57;5.23;;;15.30;94.30;;;;;;5025604;28;20049;-80
2021/10/31 12:18:47;;;;;;;7.53;5.73;;;15.30;94.40;;;;;;5027436;28;20049;-78
2021/10/31 12:21:32;;;;;;;10.60;6.53;;;15.30;94.20;;;;;;5019470;28;20046;-81
2021/10/31 12:24:07;;;;;;;7.83;5.13;;;15.30;93.90;;;;;;5012536;28;20092;-74
2021/10/31 12:26:40;;;;;;;8.53;5.67;;;15.20;93.80;;;;;;5030899;28;20049;-74
2021/10/31 12:29:09;;;;;;;7.90;4.90;;;15.20;93.90;;;;;;5013276;28;20050;-75
2021/10/31 12:31:36;;;;;;;7.67;5.70;;;15.20;94.00;;;;;;5013464;28;20041;-82
2021/10/31 12:34:13;;;;;;;8.17;5.57;;;15.20;94.10;;;;;;5031075;28;20053;-81
2021/10/31 12:36:42;;;;;;;7.20;5.63;;;15.20;94.00;;;;;;5030503;28;20068;-80
2021/10/31 12:39:30;;;;;;;7.00;4.97;;;15.20;94.30;;;;;;5012995;28;20085;-78
2021/10/31 12:42:14;;;;;;;11.07;5.70;;;15.20;93.80;;;;;;5014055;28;20116;-81
2021/10/31 12:45:19;;;;;;;7.07;5.27;;;15.20;94.00;;;;;;5012498;28;20498;-76
2021/10/31 12:47:55;;;;;;;7.57;5.30;;;15.20;94.10;;;;;;5013165;28;20041;-81
2021/10/31 12:50:27;;;;;;;7.83;6.00;;;15.20;94.60;;;;;;5013539;28;20060;-77
2021/10/31 12:53:22;;;;;;;8.10;7.13;;;15.20;94.70;;;;;;5030906;28;20048;-72
2021/10/31 12:55:49;;;;;;;8.67;6.53;;;15.10;94.40;;;;;;4996267;28;20052;-72
2021/10/31 12:58:21;;;;;;;8.27;7.40;;;15.10;94.80;;;;;;5012620;28;20053;-72
2021/10/31 13:00:50;;;;;;;;;;;15.10;95.00;;;;;;5013368;28;20091;-71
2021/10/31 13:03:19;;;;;;;9.20;7.27;;;15.00;94.40;;;;;;5012329;28;19921;-72
2021/10/31 13:05:44;;;;;;;10.80;6.80;;;14.90;95.20;;;;;;5012282;28;20374;-72
2021/10/31 13:08:13;;;;;;;9.00;7.97;;;14.90;95.60;;;;;;5043675;28;20041;-72
2021/10/31 13:10:53;;;;;;;9.07;7.50;;;14.80;95.20;;;;;;5013905;28;20440;-72
2021/10/31 13:13:25;;;;;;;8.97;7.07;;;14.80;95.10;;;;;;5012124;28;20060;-71
2021/10/31 13:15:57;;;;;;;8.70;6.77;;;14.70;95.30;;;;;;5012880;28;20072;-71
2021/10/31 13:18:26;;;;;;;8.23;7.13;;;14.60;95.40;;;;;;5013120;28;20429;-73
2021/10/31 13:21:03;;;;;;;8.83;6.87;;;14.50;95.50;;;;;;5007817;28;20394;-72
